Time;durP1;ratioP1;P1;durP2;ratioP2;P2;SDS_P1;SDS_P2;PMS_P1;PMS_P2;Temp;Humidity;BMP_temperature;BMP_pressure;BME280_temperature;BME280_humidity;BME280_pressure;Samples;Min_cycle;Max_cycle;Signal;HPM_P1;HPM_P2
2022/05/15 00:01:05;;;;;;;28.20;5.35;;;11.10;99.90;;;;;;5032436;28;20045;-63
2022/05/15 00:03:30;;;;;;;27.63;4.88;;;11.10;99.90;;;;;;5040689;28;20495;-62
2022/05/15 00:06:02;;;;;;;28.73;5.53;;;11.20;99.90;;;;;;5024736;28;20060;-63
2022/05/15 00:08:31;;;;;;;36.80;6.43;;;11.20;99.90;;;;;;5044813;28;20045;-62
2022/05/15 00:10:58;;;;;;;26.98;5.15;;;11.20;99.90;;;;;;5038498;28;20736;-61
2022/05/15 00:13:26;;;;;;;26.63;6.03;;;11.20;99.90;;;;;;5038709;28;20511;-62
2022/05/15 00:15:52;;;;;;;29.38;5.72;;;11.20;99.90;;;;;;5031682;28;20107;-61
2022/05/15 00:18:20;;;;;;;25.92;5.85;;;11.20;99.90;;;;;;5014393;28;20158;-62
2022/05/15 00:20:46;;;;;;;35.45;6.45;;;11.20;99.90;;;;;;5027244;28;20048;-61
2022/05/15 00:23:12;;;;;;;30.80;6.25;;;11.10;99.90;;;;;;5035118;28;20045;-61
2022/05/15 00:25:39;;;;;;;31.25;7.78;;;11.10;99.90;;;;;;5035840;28;20045;-62
2022/05/15 00:28:05;;;;;;;34.55;8.10;;;11.00;99.90;;;;;;5026570;28;20479;-63
2022/05/15 00:30:33;;;;;;;35.60;7.10;;;11.00;99.90;;;;;;5026844;28;20041;-63
2022/05/15 00:32:59;;;;;;;31.83;7.28;;;11.00;99.90;;;;;;5029347;28;20171;-63
2022/05/15 00:35:25;;;;;;;33.22;6.93;;;11.00;99.90;;;;;;5036190;28;20519;-62
2022/05/15 00:37:51;;;;;;;37.10;7.15;;;10.90;99.90;;;;;;5036790;28;20065;-62
2022/05/15 00:40:21;;;;;;;40.03;8.15;;;10.90;99.90;;;;;;5035533;28;20868;-63
2022/05/15 00:42:47;;;;;;;30.83;6.40;;;10.80;99.90;;;;;;5032357;28;20388;-62
2022/05/15 00:45:15;;;;;;;32.30;7.00;;;10.80;99.90;;;;;;5008657;28;20091;-62
2022/05/15 00:47:41;;;;;;;35.75;7.03;;;10.70;99.90;;;;;;5025999;28;20041;-62
2022/05/15 00:50:10;;;;;;;32.85;6.88;;;10.70;99.90;;;;;;5036718;28;20037;-62
2022/05/15 00:52:40;;;;;;;32.72;6.70;;;10.70;99.90;;;;;;5030315;28;20133;-62
2022/05/15 00:55:12;;;;;;;30.33;6.40;;;10.60;99.90;;;;;;5024757;28;20049;-63
2022/05/15 00:57:59;;;;;;;33.15;6.88;;;10.50;99.90;;;;;;5013012;28;20106;-62
2022/05/15 01:00:28;;;;;;;29.90;6.65;;;10.50;99.90;;;;;;5018301;28;20518;-62
2022/05/15 01:03:00;;;;;;;25.83;6.72;;;10.50;99.90;;;;;;5024888;28;20044;-62
2022/05/15 01:05:26;;;;;;;35.45;7.43;;;10.50;99.90;;;;;;5040652;28;20080;-62
2022/05/15 01:07:52;;;;;;;38.13;7.38;;;10.40;99.90;;;;;;4998175;28;20053;-62
2022/05/15 01:10:18;;;;;;;29.02;6.25;;;10.40;99.90;;;;;;5027072;28;20043;-62
2022/05/15 01:12:44;;;;;;;32.63;7.47;;;10.40;99.90;;;;;;5038021;28;20046;-63
2022/05/15 01:15:18;;;;;;;33.78;6.80;;;10.50;99.90;;;;;;5034855;28;20095;-62
2022/05/15 01:17:44;;;;;;;32.17;6.07;;;10.60;99.90;;;;;;5038553;28;20547;-63
2022/05/15 01:20:14;;;;;;;38.75;6.47;;;10.70;99.90;;;;;;5031211;28;20244;-62
2022/05/15 01:22:39;;;;;;;33.85;7.57;;;10.70;99.90;;;;;;5017341;28;20698;-62
2022/05/15 01:25:14;;;;;;;32.58;7.30;;;10.80;99.90;;;;;;5013883;28;20041;-62
2022/05/15 01:27:48;;;;;;;36.38;7.80;;;10.90;99.90;;;;;;5034324;28;20129;-62
2022/05/15 01:30:14;;;;;;;34.25;7.30;;;10.90;99.90;;;;;;5032864;28;20049;-63
2022/05/15 01:32:40;;;;;;;36.25;7.88;;;10.90;99.90;;;;;;5043184;28;20039;-62
2022/05/15 01:35:06;;;;;;;36.75;7.50;;;10.90;99.90;;;;;;5033113;28;20045;-62
2022/05/15 01:37:32;;;;;;;34.08;5.95;;;10.80;99.90;;;;;;5013536;28;20041;-62
2022/05/15 01:39:58;;;;;;;30.95;6.25;;;10.80;99.90;;;;;;5025121;28;20392;-62
2022/05/15 01:42:24;;;;;;;33.10;7.45;;;10.90;99.90;;;;;;5018526;28;20053;-62
2022/05/15 01:44:50;;;;;;;30.88;6.80;;;10.80;99.90;;;;;;5035473;28;20045;-62
2022/05/15 01:47:16;;;;;;;32.78;6.50;;;10.80;99.90;;;;;;5024879;28;20558;-61
2022/05/15 01:49:42;;;;;;;37.63;6.57;;;10.70;99.90;;;;;;5031001;28;20049;-62
2022/05/15 01:52:08;;;;;;;37.40;7.63;;;10.70;99.90;;;;;;5001166;28;20041;-63
2022/05/15 01:54:33;;;;;;;35.40;6.57;;;10.70;99.90;;;;;;5043672;28;20044;-62
2022/05/15 01:56:59;;;;;;;32.58;6.28;;;10.60;99.90;;;;;;5029162;28;20534;-62
2022/05/15 01:59:25;;;;;;;25.98;5.20;;;10.60;99.90;;;;;;5041001;28;20116;-62
2022/05/15 02:01:51;;;;;;;30.67;5.88;;;10.60;99.90;;;;;;5032473;28;20173;-63
2022/05/15 02:04:16;;;;;;;28.17;6.13;;;10.60;99.90;;;;;;5038739;28;20041;-62
2022/05/15 02:06:42;;;;;;;29.58;5.20;;;10.60;99.90;;;;;;5016601;28;20049;-61
2022/05/15 02:09:09;;;;;;;31.63;6.38;;;10.50;99.90;;;;;;5033240;28;20042;-62
2022/05/15 02:11:37;;;;;;;31.83;5.63;;;10.40;99.90;;;;;;5037732;28;20407;-62
2022/05/15 02:14:03;;;;;;;26.15;5.47;;;10.40;99.90;;;;;;5034096;28;20487;-62
2022/05/15 02:16:29;;;;;;;26.75;5.15;;;10.40;99.90;;;;;;5042600;28;20052;-62
2022/05/15 02:18:54;;;;;;;24.38;5.70;;;10.40;99.90;;;;;;5029683;28;20090;-61
2022/05/15 02:21:20;;;;;;;30.33;5.90;;;10.40;99.90;;;;;;5038266;28;20045;-61
2022/05/15 02:23:46;;;;;;;29.67;5.43;;;10.40;99.90;;;;;;5035293;28;20122;-62
2022/05/15 02:26:11;;;;;;;25.50;5.47;;;10.40;99.90;;;;;;5028644;28;20063;-61
2022/05/15 02:28:38;;;;;;;28.67;5.95;;;10.30;99.90;;;;;;5033911;28;20045;-61
2022/05/15 02:31:04;;;;;;;28.95;6.00;;;10.30;99.90;;;;;;5037218;28;20038;-63
2022/05/15 02:33:30;;;;;;;32.33;6.25;;;10.20;99.90;;;;;;5039874;28;20729;-62
2022/05/15 02:35:56;;;;;;;23.25;5.47;;;10.10;99.90;;;;;;5030274;28;20046;-62
2022/05/15 02:38:21;;;;;;;30.42;6.13;;;10.20;99.90;;;;;;5029463;28;20262;-62
2022/05/15 02:40:48;;;;;;;28.70;5.70;;;10.20;99.90;;;;;;5018911;28;20067;-63
2022/05/15 02:43:14;;;;;;;27.42;5.18;;;10.10;99.90;;;;;;5021769;28;20115;-62
2022/05/15 02:45:39;;;;;;;30.17;6.80;;;10.10;99.90;;;;;;5035109;28;20450;-63
2022/05/15 02:51:03;;;;;;;33.95;6.60;;;10.00;99.90;;;;;;5004433;28;20045;-62
2022/05/15 02:51:06;;;;;;;35.50;6.82;;;10.00;99.90;;;;;;5038786;28;20458;-62
2022/05/15 02:53:40;;;;;;;37.15;7.68;;;10.10;99.90;;;;;;4999868;28;20063;-62
2022/05/15 02:56:11;;;;;;;32.95;6.65;;;10.10;99.90;;;;;;5038738;28;20041;-61
2022/05/15 02:58:37;;;;;;;36.05;7.28;;;10.10;99.90;;;;;;5034853;28;20042;-61
2022/05/15 03:01:04;;;;;;;29.17;6.07;;;9.90;99.90;;;;;;5020246;28;20109;-62
2022/05/15 03:03:30;;;;;;;28.90;6.68;;;9.80;99.90;;;;;;5037278;28;20418;-62
2022/05/15 03:05:56;;;;;;;38.65;7.93;;;9.70;99.90;;;;;;5040152;28;20048;-62
2022/05/15 03:08:22;;;;;;;36.70;7.45;;;9.60;99.90;;;;;;5023389;28;20045;-63
2022/05/15 03:10:48;;;;;;;40.35;8.57;;;9.40;99.90;;;;;;5043405;28;20052;-62
2022/05/15 03:13:14;;;;;;;33.53;7.93;;;9.30;99.90;;;;;;5035703;28;20510;-62
2022/05/15 03:15:40;;;;;;;35.83;7.95;;;9.20;99.90;;;;;;5039914;28;20284;-63
2022/05/15 03:18:06;;;;;;;41.20;7.82;;;9.10;99.90;;;;;;5015973;28;20053;-62
2022/05/15 03:20:32;;;;;;;43.72;9.15;;;9.00;99.90;;;;;;5029159;28;20513;-62
2022/05/15 03:22:59;;;;;;;33.35;8.02;;;8.90;99.90;;;;;;5038987;28;20116;-62
2022/05/15 03:25:27;;;;;;;43.85;9.63;;;8.80;99.90;;;;;;5033558;28;20433;-63
2022/05/15 03:27:54;;;;;;;38.80;9.10;;;8.70;99.90;;;;;;5025063;28;20120;-62
2022/05/15 03:30:20;;;;;;;44.47;9.38;;;8.70;99.90;;;;;;5043259;28;20495;-62
2022/05/15 03:32:46;;;;;;;35.13;9.15;;;8.60;99.90;;;;;;5026282;28;20550;-62
2022/05/15 03:35:14;;;;;;;42.50;9.82;;;8.60;99.90;;;;;;5038370;28;20120;-63
2022/05/15 03:37:40;;;;;;;33.88;8.40;;;8.50;99.90;;;;;;5014328;28;20120;-63
2022/05/15 03:40:08;;;;;;;39.33;10.25;;;8.40;99.90;;;;;;5035398;28;20033;-63
2022/05/15 03:42:34;;;;;;;38.05;9.88;;;8.40;99.90;;;;;;5041978;28;20560;-63
2022/05/15 03:45:00;;;;;;;36.35;10.20;;;8.40;99.90;;;;;;5034336;28;20475;-62
2022/05/15 03:47:26;;;;;;;36.53;9.57;;;8.30;99.90;;;;;;5034940;28;20044;-63
2022/05/15 03:49:53;;;;;;;36.50;9.88;;;8.30;99.90;;;;;;5044127;28;20044;-62
2022/05/15 03:52:18;;;;;;;41.85;10.45;;;8.40;99.90;;;;;;5042230;28;20083;-63
2022/05/15 03:54:46;;;;;;;37.47;10.05;;;8.40;99.90;;;;;;5038405;28;20376;-63
2022/05/15 03:57:13;;;;;;;40.80;10.27;;;8.50;99.90;;;;;;5003047;28;20375;-63
2022/05/15 03:59:40;;;;;;;34.85;9.98;;;8.40;99.90;;;;;;5045099;28;20556;-62
2022/05/15 04:02:09;;;;;;;41.03;10.38;;;8.50;99.90;;;;;;5017383;28;20079;-63
2022/05/15 04:04:35;;;;;;;40.45;9.07;;;8.40;99.90;;;;;;5029139;28;20395;-62
2022/05/15 04:07:01;;;;;;;40.78;9.35;;;8.50;99.90;;;;;;5029749;28;20049;-62
2022/05/15 04:09:29;;;;;;;42.63;10.02;;;8.70;99.90;;;;;;5026810;28;20060;-62
2022/05/15 04:11:55;;;;;;;38.38;9.73;;;9.00;99.90;;;;;;5030413;28;20117;-63
2022/05/15 04:14:21;;;;;;;46.53;10.05;;;9.20;99.90;;;;;;5030726;28;20532;-62
2022/05/15 04:16:47;;;;;;;44.15;10.63;;;9.40;99.90;;;;;;5021699;28;20128;-62
2022/05/15 04:19:12;;;;;;;46.38;11.25;;;9.50;99.90;;;;;;5014330;28;20033;-62
2022/05/15 04:21:40;;;;;;;51.17;11.13;;;9.60;99.90;;;;;;5014627;28;20146;-62
2022/05/15 04:24:17;;;;;;;44.67;10.50;;;9.80;99.90;;;;;;5041199;28;20119;-62
2022/05/15 04:26:44;;;;;;;37.53;8.75;;;10.00;99.90;;;;;;5019003;28;20053;-63
2022/05/15 04:29:10;;;;;;;39.95;9.65;;;10.00;99.90;;;;;;5037399;28;20056;-62
2022/05/15 04:31:36;;;;;;;47.42;9.90;;;10.10;99.90;;;;;;5034935;28;20056;-62
2022/05/15 04:34:03;;;;;;;41.70;9.40;;;10.20;99.90;;;;;;5033471;28;20052;-62
2022/05/15 04:36:29;;;;;;;38.67;9.38;;;10.20;99.90;;;;;;5039075;28;20063;-63
2022/05/15 04:38:56;;;;;;;40.47;9.32;;;10.20;99.90;;;;;;5031529;28;20037;-62
2022/05/15 04:41:22;;;;;;;39.60;9.43;;;10.30;99.90;;;;;;5032987;28;20049;-62
2022/05/15 04:43:49;;;;;;;40.08;8.65;;;10.30;99.90;;;;;;5033572;28;20041;-61
2022/05/15 04:46:15;;;;;;;41.90;10.02;;;10.20;99.90;;;;;;5034223;28;20084;-62
2022/05/15 04:48:41;;;;;;;39.85;10.18;;;10.30;99.90;;;;;;5033370;28;20053;-62
2022/05/15 04:51:07;;;;;;;40.45;10.13;;;10.30;99.90;;;;;;5016770;28;20057;-62
2022/05/15 04:53:33;;;;;;;34.92;8.35;;;10.30;99.90;;;;;;5036100;28;20091;-62
2022/05/15 04:56:00;;;;;;;43.85;9.98;;;10.40;99.90;;;;;;5033242;28;20056;-62
2022/05/15 04:58:26;;;;;;;36.30;8.90;;;10.40;99.90;;;;;;5036949;28;20038;-63
2022/05/15 05:00:52;;;;;;;35.17;8.27;;;10.50;99.90;;;;;;5037007;28;20036;-62
2022/05/15 05:03:18;;;;;;;38.78;8.00;;;10.50;99.90;;;;;;5038508;28;20041;-62
2022/05/15 05:05:44;;;;;;;35.10;8.73;;;10.50;99.90;;;;;;5026610;28;20055;-63
2022/05/15 05:08:12;;;;;;;38.50;7.97;;;10.50;99.90;;;;;;5041605;28;20067;-63
2022/05/15 05:10:39;;;;;;;35.00;7.68;;;10.60;99.90;;;;;;5024931;28;20033;-63
2022/05/15 05:13:05;;;;;;;30.60;7.43;;;10.60;99.90;;;;;;5020328;28;20528;-62
2022/05/15 05:15:31;;;;;;;33.55;7.72;;;10.70;99.90;;;;;;5014886;28;20112;-62
2022/05/15 05:17:57;;;;;;;30.13;7.63;;;10.70;99.90;;;;;;5015452;28;20141;-62
2022/05/15 05:20:24;;;;;;;31.48;7.57;;;10.70;99.90;;;;;;5022324;28;20052;-62
2022/05/15 05:22:50;;;;;;;31.02;7.30;;;10.80;99.90;;;;;;5038721;28;20047;-61
2022/05/15 05:25:16;;;;;;;27.55;6.50;;;10.80;99.90;;;;;;5035985;28;20037;-62
2022/05/15 05:27:42;;;;;;;32.15;6.97;;;11.00;99.90;;;;;;5019158;28;20060;-62
2022/05/15 05:30:16;;;;;;;23.55;6.07;;;11.30;99.90;;;;;;5033495;28;20037;-62
2022/05/15 05:32:42;;;;;;;28.48;6.32;;;11.70;99.90;;;;;;5036150;28;20068;-62
2022/05/15 05:35:08;;;;;;;25.98;6.53;;;12.00;99.90;;;;;;5039273;28;20391;-63
2022/05/15 05:37:34;;;;;;;22.85;5.10;;;12.20;99.90;;;;;;5038372;28;20076;-62
2022/05/15 05:39:59;;;;;;;29.13;6.00;;;12.40;99.90;;;;;;5036115;28;20041;-61
2022/05/15 05:42:25;;;;;;;26.55;6.45;;;12.50;99.90;;;;;;5037161;28;20037;-62
2022/05/15 05:44:51;;;;;;;22.42;5.00;;;12.70;99.90;;;;;;5022992;28;20102;-62
2022/05/15 05:47:27;;;;;;;25.10;5.50;;;12.90;99.90;;;;;;5023978;28;20056;-60
2022/05/15 05:49:54;;;;;;;25.95;5.63;;;13.10;99.90;;;;;;5039491;28;21648;-60
2022/05/15 05:52:20;;;;;;;21.85;4.72;;;13.20;99.90;;;;;;5003753;28;20064;-61
2022/05/15 05:54:46;;;;;;;22.27;5.22;;;13.40;99.90;;;;;;5037654;28;20053;-62
2022/05/15 05:57:12;;;;;;;24.50;4.63;;;13.50;99.90;;;;;;5046632;28;20049;-63
2022/05/15 05:59:38;;;;;;;25.17;5.32;;;13.60;99.90;;;;;;5006391;28;20826;-62
2022/05/15 06:02:06;;;;;;;25.80;4.85;;;13.60;99.90;;;;;;5037123;28;20051;-62
2022/05/15 06:04:42;;;;;;;23.48;4.90;;;13.90;99.90;;;;;;5038915;28;20071;-62
2022/05/15 06:07:12;;;;;;;20.17;4.68;;;14.10;99.90;;;;;;5029760;28;20037;-62
2022/05/15 06:09:40;;;;;;;25.20;4.95;;;14.10;99.90;;;;;;5035735;28;20128;-62
2022/05/15 06:12:06;;;;;;;18.60;3.88;;;14.30;99.90;;;;;;5037781;28;20049;-63
2022/05/15 06:14:32;;;;;;;25.58;4.80;;;14.30;99.90;;;;;;5029697;28;20081;-63
2022/05/15 06:16:58;;;;;;;19.85;4.03;;;14.30;99.90;;;;;;5039850;28;20048;-63
2022/05/15 06:19:24;;;;;;;21.40;4.60;;;14.30;99.90;;;;;;5026634;28;20045;-63
2022/05/15 06:21:49;;;;;;;22.13;4.30;;;14.60;99.90;;;;;;5010488;28;20419;-63
2022/05/15 06:24:15;;;;;;;19.35;4.03;;;14.80;99.90;;;;;;5019858;28;20053;-62
2022/05/15 06:26:41;;;;;;;22.80;4.32;;;15.00;99.90;;;;;;5032491;28;20107;-63
2022/05/15 06:29:07;;;;;;;22.95;4.90;;;15.00;99.90;;;;;;5015816;28;20114;-62
2022/05/15 06:31:32;;;;;;;25.30;5.47;;;14.90;99.90;;;;;;5020247;28;20110;-62
2022/05/15 06:33:58;;;;;;;24.55;4.88;;;15.00;99.90;;;;;;5039603;28;20389;-62
2022/05/15 06:36:24;;;;;;;18.42;4.63;;;15.10;99.90;;;;;;5043394;28;20033;-63
2022/05/15 06:38:50;;;;;;;20.05;4.82;;;15.20;99.90;;;;;;5044295;28;20036;-62
2022/05/15 06:41:16;;;;;;;23.23;5.03;;;15.20;99.90;;;;;;5027774;28;20439;-63
2022/05/15 06:43:41;;;;;;;23.85;5.45;;;15.30;99.90;;;;;;5035630;28;20033;-62
2022/05/15 06:46:07;;;;;;;23.63;5.50;;;15.30;99.90;;;;;;5039147;28;20127;-61
2022/05/15 06:48:34;;;;;;;20.88;5.10;;;15.20;99.90;;;;;;5019926;28;20041;-62
2022/05/15 06:51:02;;;;;;;18.08;4.35;;;15.30;99.90;;;;;;5010055;28;20682;-62
2022/05/15 06:53:28;;;;;;;23.48;5.03;;;15.50;99.90;;;;;;5031647;28;20041;-62
2022/05/15 06:58:38;;;;;;;19.55;5.15;;;15.70;99.90;;;;;;5033981;28;20132;-61
2022/05/15 07:01:04;;;;;;;22.92;5.10;;;15.80;99.90;;;;;;5037279;28;20132;-62
2022/05/15 07:03:30;;;;;;;21.63;5.00;;;15.70;99.90;;;;;;5015164;28;20575;-61
2022/05/15 07:05:56;;;;;;;19.15;4.78;;;15.80;99.90;;;;;;5035016;28;20040;-61
2022/05/15 07:08:22;;;;;;;21.45;4.78;;;15.90;99.90;;;;;;5036721;28;20446;-61
2022/05/15 07:10:48;;;;;;;23.90;5.05;;;15.80;99.90;;;;;;5028795;28;20069;-60
2022/05/15 07:13:14;;;;;;;20.83;5.05;;;15.80;99.90;;;;;;5037115;28;20504;-62
2022/05/15 07:15:40;;;;;;;21.10;5.40;;;15.90;99.90;;;;;;5026918;28;20391;-62
2022/05/15 07:18:07;;;;;;;21.35;4.97;;;16.00;99.90;;;;;;5033137;28;20112;-63
2022/05/15 07:20:34;;;;;;;20.85;4.80;;;16.30;99.90;;;;;;5042291;28;20049;-61
2022/05/15 07:23:00;;;;;;;20.98;4.70;;;16.40;99.90;;;;;;5028727;28;20088;-61
2022/05/15 07:25:26;;;;;;;20.60;4.53;;;16.60;99.90;;;;;;5018082;28;20151;-62
2022/05/15 07:27:51;;;;;;;19.65;4.85;;;16.60;99.90;;;;;;5037356;28;20156;-62
2022/05/15 07:30:17;;;;;;;17.90;4.85;;;16.80;99.90;;;;;;5031648;28;20090;-62
2022/05/15 07:32:43;;;;;;;16.67;4.07;;;16.80;99.90;;;;;;5036443;28;20049;-63
2022/05/15 07:35:09;;;;;;;20.08;4.32;;;17.00;99.90;;;;;;5034923;28;20069;-63
2022/05/15 07:37:36;;;;;;;18.50;4.32;;;17.00;99.90;;;;;;5026056;28;20033;-62
2022/05/15 07:40:02;;;;;;;17.40;3.75;;;17.20;99.90;;;;;;5037957;28;20032;-61
2022/05/15 07:42:29;;;;;;;16.85;4.03;;;17.30;99.90;;;;;;5038335;28;20406;-62
2022/05/15 07:44:57;;;;;;;18.48;4.25;;;17.20;99.90;;;;;;5026676;28;20049;-62
2022/05/15 07:47:24;;;;;;;18.40;4.40;;;17.10;99.90;;;;;;5036759;28;20080;-61
2022/05/15 07:49:50;;;;;;;14.20;3.58;;;17.10;99.90;;;;;;5016944;28;20071;-62
2022/05/15 07:52:16;;;;;;;16.38;3.50;;;17.30;99.90;;;;;;5019534;28;20041;-63
2022/05/15 07:54:42;;;;;;;20.05;4.53;;;17.20;99.90;;;;;;5032550;28;20132;-63
2022/05/15 07:57:08;;;;;;;15.50;3.63;;;17.10;99.90;;;;;;5029608;28;20159;-62
2022/05/15 07:59:34;;;;;;;17.17;3.53;;;17.20;99.90;;;;;;5011200;28;20131;-62
2022/05/15 08:02:02;;;;;;;15.93;3.60;;;17.30;99.90;;;;;;5038430;28;20468;-62
2022/05/15 08:04:28;;;;;;;13.75;3.08;;;17.40;99.90;;;;;;5036072;28;20041;-62
2022/05/15 08:09:38;;;;;;;14.65;3.20;;;17.70;99.90;;;;;;5038111;28;20055;-62
2022/05/15 08:12:05;;;;;;;13.55;2.75;;;18.00;99.90;;;;;;5035027;28;20048;-63
2022/05/15 08:14:30;;;;;;;13.77;3.30;;;18.00;99.90;;;;;;5034232;28;20075;-62
2022/05/15 08:16:57;;;;;;;13.48;3.38;;;18.20;99.90;;;;;;5026552;28;20515;-62
2022/05/15 08:24:52;;;;;;;15.75;3.92;;;18.40;99.90;;;;;;5035974;28;20075;-62
2022/05/15 08:27:18;;;;;;;15.93;3.72;;;18.70;99.90;;;;;;5036116;28;20053;-61
2022/05/15 08:29:44;;;;;;;15.75;3.53;;;19.00;99.90;;;;;;5036385;28;20132;-62
2022/05/15 08:32:10;;;;;;;15.05;3.38;;;19.00;99.90;;;;;;5010985;28;20049;-61
2022/05/15 08:34:36;;;;;;;13.10;3.13;;;19.00;99.90;;;;;;5020742;28;20492;-61
2022/05/15 08:37:03;;;;;;;15.52;3.83;;;19.10;99.90;;;;;;5032600;28;20040;-62
2022/05/15 08:39:30;;;;;;;14.25;3.35;;;19.30;99.90;;;;;;5034183;28;20115;-62
2022/05/15 08:42:19;;;;;;;16.83;3.95;;;19.40;99.90;;;;;;5026608;28;20040;-62
2022/05/15 08:44:46;;;;;;;15.20;3.55;;;19.30;99.90;;;;;;5034365;28;20403;-62
2022/05/15 08:47:32;;;;;;;12.73;3.45;;;19.30;99.90;;;;;;5034847;28;20052;-63
2022/05/15 08:50:03;;;;;;;13.75;3.17;;;19.40;99.90;;;;;;5033442;28;20049;-62
2022/05/15 08:52:53;;;;;;;15.38;3.95;;;19.50;99.90;;;;;;5033554;28;20046;-62
2022/05/15 08:55:21;;;;;;;14.27;4.00;;;19.60;99.90;;;;;;5032100;28;20056;-63
2022/05/15 08:58:00;;;;;;;13.02;3.58;;;19.90;99.90;;;;;;5041882;28;20060;-63
2022/05/15 09:00:41;;;;;;;14.38;3.97;;;20.10;99.90;;;;;;5032703;28;20450;-64
2022/05/15 09:03:23;;;;;;;10.55;3.08;;;20.20;99.90;;;;;;5035704;28;20072;-63
2022/05/15 09:06:05;;;;;;;16.00;3.28;;;20.60;99.90;;;;;;5035532;28;20052;-62
2022/05/15 09:08:49;;;;;;;14.65;3.55;;;20.80;99.90;;;;;;5038137;28;20055;-62
2022/05/15 09:11:41;;;;;;;13.82;3.58;;;20.90;99.90;;;;;;5029086;28;20492;-62
2022/05/15 09:14:42;;;;;;;12.93;3.42;;;20.60;99.90;;;;;;5007463;28;20112;-62
2022/05/15 09:17:34;;;;;;;12.15;3.40;;;20.80;99.90;;;;;;5021792;28;20060;-62
2022/05/15 09:20:07;;;;;;;11.00;3.10;;;20.80;99.90;;;;;;5035853;28;20045;-63
2022/05/15 09:22:37;;;;;;;13.55;3.75;;;21.20;99.90;;;;;;5038983;28;20041;-62
2022/05/15 09:25:19;;;;;;;13.02;3.25;;;21.30;99.90;;;;;;5032815;28;20410;-62
2022/05/15 09:28:08;;;;;;;10.97;3.10;;;21.20;99.90;;;;;;5039416;28;20048;-62
2022/05/15 09:30:49;;;;;;;12.40;3.47;;;21.30;99.90;;;;;;5022669;28;20566;-62
2022/05/15 09:33:35;;;;;;;11.63;2.67;;;21.70;99.90;;;;;;5027261;28;20041;-62
2022/05/15 09:36:16;;;;;;;10.80;2.67;;;22.00;99.90;;;;;;5033478;28;20179;-63
2022/05/15 09:38:42;;;;;;;9.88;2.60;;;22.00;99.90;;;;;;5035877;28;20041;-63
2022/05/15 09:44:01;;;;;;;11.68;2.63;;;22.30;99.90;;;;;;5049744;28;20503;-63
2022/05/15 09:46:28;;;;;;;7.03;1.80;;;22.30;99.90;;;;;;5031342;28;20049;-63
2022/05/15 09:49:22;;;;;;;9.48;2.55;;;22.50;99.90;;;;;;5048547;28;20483;-63
2022/05/15 09:51:54;;;;;;;7.28;1.83;;;22.60;97.70;;;;;;5036750;28;20057;-63
2022/05/15 09:54:35;;;;;;;6.73;1.87;;;22.40;98.60;;;;;;5035073;28;20110;-63
2022/05/15 09:57:30;;;;;;;9.05;1.90;;;22.50;96.80;;;;;;5039173;28;20037;-64
2022/05/15 09:59:58;;;;;;;28.48;3.55;;;22.40;99.90;;;;;;5041928;28;20056;-64
2022/05/15 10:02:38;;;;;;;10.18;2.58;;;22.50;99.90;;;;;;5041506;28;20055;-63
2022/05/15 10:05:12;;;;;;;13.30;2.55;;;22.70;99.70;;;;;;5041592;28;20126;-62
2022/05/15 10:07:44;;;;;;;11.93;2.70;;;22.10;99.20;;;;;;5029613;28;20072;-62
2022/05/15 10:10:23;;;;;;;9.48;2.60;;;22.10;98.40;;;;;;5030242;28;20526;-63
2022/05/15 10:13:04;;;;;;;11.23;2.70;;;22.80;97.80;;;;;;5031446;28;20037;-63
2022/05/15 10:15:39;;;;;;;9.65;2.70;;;23.00;98.30;;;;;;5032835;28;20390;-63
2022/05/15 10:18:08;;;;;;;11.55;2.47;;;23.30;94.80;;;;;;5037633;28;20040;-64
2022/05/15 10:20:39;;;;;;;8.93;2.28;;;23.50;92.10;;;;;;5035196;28;20116;-62
2022/05/15 10:23:13;;;;;;;12.10;2.95;;;23.40;98.20;;;;;;5033144;28;20116;-63
2022/05/15 10:25:48;;;;;;;8.45;1.90;;;23.20;98.70;;;;;;5038297;28;20048;-63
2022/05/15 10:28:26;;;;;;;9.57;2.17;;;23.00;98.00;;;;;;5034053;28;20106;-63
2022/05/15 10:31:28;;;;;;;10.32;2.80;;;22.90;99.10;;;;;;5044731;28;20120;-62
2022/05/15 10:34:10;;;;;;;11.63;2.70;;;22.80;98.60;;;;;;5029351;28;20129;-63
2022/05/15 10:37:03;;;;;;;10.88;2.40;;;23.00;99.10;;;;;;5045169;28;20048;-63
2022/05/15 10:39:32;;;;;;;;;;;22.80;99.90;;;;;;5021810;28;20052;-62
2022/05/15 10:42:16;;;;;;;9.63;2.55;;;23.00;97.80;;;;;;5030488;28;20312;-62
2022/05/15 10:44:48;;;;;;;9.57;2.22;;;22.80;99.90;;;;;;5049581;28;20094;-62
2022/05/15 10:47:20;;;;;;;9.70;2.27;;;22.80;98.60;;;;;;5049461;28;20045;-62
2022/05/15 10:50:01;;;;;;;13.07;2.83;;;22.50;99.90;;;;;;5049591;28;20323;-62
2022/05/15 10:52:39;;;;;;;8.95;2.30;;;23.00;99.90;;;;;;5049484;28;20545;-61
2022/05/15 10:58:34;;;;;;;12.23;2.67;;;23.00;99.90;;;;;;5049607;28;20084;-61
2022/05/15 11:01:07;;;;;;;12.63;2.95;;;22.80;99.90;;;;;;5049431;28;20052;-61
2022/05/15 11:04:05;;;;;;;9.88;2.47;;;22.40;99.90;;;;;;5049053;28;20041;-61
2022/05/15 11:07:03;;;;;;;12.98;3.20;;;22.70;99.90;;;;;;5049513;28;20522;-60
2022/05/15 11:09:54;;;;;;;12.40;3.92;;;22.70;99.90;;;;;;5032808;28;20143;-61
2022/05/15 11:12:26;;;;;;;11.32;2.95;;;23.00;99.90;;;;;;5048778;28;20045;-61
2022/05/15 11:15:12;;;;;;;13.13;3.30;;;22.60;99.90;;;;;;5049044;28;20156;-61
2022/05/15 11:17:41;;;;;;;15.90;4.00;;;22.60;99.90;;;;;;5048644;28;20064;-61
2022/05/15 11:20:16;;;;;;;15.70;3.40;;;22.60;99.90;;;;;;5048747;28;20044;-61
2022/05/15 11:22:47;;;;;;;11.60;3.58;;;22.60;99.90;;;;;;5048613;28;20070;-61
2022/05/15 11:25:24;;;;;;;13.68;3.28;;;22.40;99.90;;;;;;5049041;28;20045;-61
2022/05/15 11:27:53;;;;;;;17.20;3.85;;;22.20;99.90;;;;;;5048977;28;20494;-61
2022/05/15 11:30:45;;;;;;;14.30;3.30;;;22.40;99.90;;;;;;5048548;28;20045;-60
2022/05/15 11:33:45;;;;;;;13.43;3.70;;;22.80;99.90;;;;;;5031730;28;20079;-61
2022/05/15 11:36:36;;;;;;;13.82;3.90;;;22.90;99.90;;;;;;5021300;28;20572;-60
2022/05/15 11:39:14;;;;;;;15.60;3.85;;;22.60;99.90;;;;;;5040427;28;20049;-61
2022/05/15 11:41:42;;;;;;;16.15;3.60;;;22.70;99.90;;;;;;5049674;28;20087;-61
2022/05/15 11:44:14;;;;;;;17.83;3.85;;;22.70;99.90;;;;;;5031808;28;20095;-60
2022/05/15 11:46:46;;;;;;;16.75;4.18;;;22.90;99.90;;;;;;5049814;28;20049;-62
2022/05/15 11:49:17;;;;;;;12.32;3.67;;;22.50;99.90;;;;;;5048030;28;20065;-61
2022/05/15 11:51:43;;;;;;;11.70;3.45;;;22.70;99.90;;;;;;5048115;28;20128;-61
2022/05/15 11:54:27;;;;;;;15.98;4.47;;;22.50;99.90;;;;;;5047904;28;20057;-61
2022/05/15 11:56:57;;;;;;;15.05;3.95;;;22.40;99.90;;;;;;5048171;28;20056;-61
2022/05/15 11:59:27;;;;;;;17.15;4.60;;;22.80;99.90;;;;;;5047781;28;20507;-61
2022/05/15 12:01:57;;;;;;;15.82;4.38;;;22.90;99.90;;;;;;5031604;28;20470;-61
2022/05/15 12:04:35;;;;;;;15.82;4.22;;;23.00;99.90;;;;;;5048293;28;20136;-61
2022/05/15 12:07:01;;;;;;;15.65;3.78;;;22.80;99.90;;;;;;5048020;28;20045;-61
2022/05/15 12:09:26;;;;;;;18.48;4.32;;;23.00;99.90;;;;;;5047689;28;20102;-61
2022/05/15 12:11:57;;;;;;;15.25;4.35;;;23.20;99.90;;;;;;5049085;28;20119;-61
2022/05/15 12:14:29;;;;;;;15.60;4.03;;;22.90;99.90;;;;;;5047993;28;20107;-61
2022/05/15 12:17:19;;;;;;;17.25;4.45;;;22.60;99.90;;;;;;5031346;28;20127;-61
2022/05/15 12:19:48;;;;;;;15.65;4.10;;;22.90;99.90;;;;;;5047871;28;20156;-61
2022/05/15 12:22:16;;;;;;;13.98;3.92;;;23.30;99.90;;;;;;5048043;28;20511;-62
2022/05/15 12:24:48;;;;;;;14.57;3.90;;;23.20;99.90;;;;;;5047619;28;20128;-62
2022/05/15 12:27:21;;;;;;;18.65;4.65;;;23.40;99.90;;;;;;5047765;28;20509;-61
2022/05/15 12:30:14;;;;;;;15.23;4.10;;;23.20;99.90;;;;;;5048071;28;20053;-61
2022/05/15 12:32:52;;;;;;;18.67;4.43;;;23.10;99.90;;;;;;5047682;28;20049;-61
2022/05/15 12:35:39;;;;;;;13.88;4.20;;;23.20;99.90;;;;;;5047542;28;20500;-61
2022/05/15 12:38:08;;;;;;;17.90;4.95;;;22.70;99.90;;;;;;5047532;28;20045;-60
2022/05/15 12:40:54;;;;;;;15.13;4.10;;;22.20;99.90;;;;;;5030851;28;20048;-61
2022/05/15 12:43:45;;;;;;;14.30;4.15;;;21.90;99.90;;;;;;5047528;28;20376;-61
2022/05/15 12:46:32;;;;;;;17.85;3.85;;;22.00;99.90;;;;;;5049167;28;20051;-61
2022/05/15 12:48:58;;;;;;;18.77;4.68;;;22.30;99.90;;;;;;5030914;28;20406;-62
2022/05/15 12:51:33;;;;;;;15.52;4.03;;;22.50;99.90;;;;;;5030986;28;20096;-62
2022/05/15 12:54:01;;;;;;;19.17;4.25;;;22.30;99.90;;;;;;5048910;28;20052;-62
2022/05/15 12:56:30;;;;;;;14.90;3.90;;;22.40;99.90;;;;;;5048028;28;20045;-63
2022/05/15 12:58:59;;;;;;;15.63;3.95;;;22.50;99.90;;;;;;5047583;28;20079;-61
2022/05/15 13:01:29;;;;;;;16.92;4.47;;;22.70;99.90;;;;;;5030915;28;20368;-61
2022/05/15 13:03:57;;;;;;;19.98;4.22;;;23.00;99.90;;;;;;5047486;28;20491;-61
2022/05/15 13:06:38;;;;;;;15.73;3.72;;;23.60;99.90;;;;;;5048604;28;20040;-61
2022/05/15 13:09:07;;;;;;;14.98;4.20;;;23.70;99.90;;;;;;5047315;28;20049;-62
2022/05/15 13:11:50;;;;;;;14.13;3.90;;;23.90;99.90;;;;;;5046869;28;20029;-60